Time;durP1;ratioP1;P1;durP2;ratioP2;P2;SDS_P1;SDS_P2;PMS_P1;PMS_P2;Temp;Humidity;BMP_temperature;BMP_pressure;BME280_temperature;BME280_humidity;BME280_pressure;Samples;Min_cycle;Max_cycle;Signal;HPM_P1;HPM_P2
2023/03/05 00:01:39;;;;;;;;;3.50;3.00;;;;;20.07;49.54;100427.89;110013;1267;21267;-38
2023/03/05 00:04:07;;;;;;;;;4.00;4.00;;;;;20.06;49.76;100428.92;110026;1253;19328;-39
2023/03/05 00:06:34;;;;;;;;;3.00;3.00;;;;;20.06;49.83;100424.57;110009;1267;20550;-39
2023/03/05 00:09:02;;;;;;;;;4.00;3.00;;;;;20.06;49.58;100423.55;110030;1251;20043;-39
2023/03/05 00:11:30;;;;;;;;;4.67;4.00;;;;;20.06;49.63;100422.13;110033;1267;21597;-39
2023/03/05 00:13:57;;;;;;;;;4.00;4.00;;;;;20.06;49.47;100420.33;110007;1267;21249;-39
2023/03/05 00:16:26;;;;;;;;;3.00;3.00;;;;;20.06;49.53;100418.08;110018;1267;18663;-39
2023/03/05 00:18:53;;;;;;;;;2.00;2.00;;;;;20.06;49.57;100412.05;109994;1267;19508;-39
2023/03/05 00:21:21;;;;;;;;;6.00;3.00;;;;;20.07;49.52;100407.48;110005;1267;22685;-39
2023/03/05 00:23:49;;;;;;;;;3.00;3.00;;;;;20.06;49.47;100404.09;110030;1267;20013;-39
2023/03/05 00:26:17;;;;;;;;;6.00;4.00;;;;;20.07;49.31;100401.10;110013;1260;23162;-39
2023/03/05 00:28:46;;;;;;;;;3.00;3.00;;;;;20.06;49.27;100401.00;110005;1254;22312;-39
2023/03/05 00:31:13;;;;;;;;;3.00;3.00;;;;;20.07;49.41;100399.17;109883;1251;20006;-39
2023/03/05 00:33:41;;;;;;;;;3.00;3.00;;;;;20.06;49.27;100402.30;109959;1267;20667;-39
2023/03/05 00:36:08;;;;;;;;;4.00;4.00;;;;;20.06;49.35;100397.20;109933;1267;19608;-40
2023/03/05 00:38:36;;;;;;;;;3.00;3.00;;;;;20.06;49.31;100396.90;110014;1251;20012;-39
2023/03/05 00:41:04;;;;;;;;;3.00;3.00;;;;;20.06;49.30;100396.90;110023;1267;20677;-39
2023/03/05 00:43:31;;;;;;;;;3.00;3.00;;;;;20.05;49.17;100391.35;110008;1253;19661;-39
2023/03/05 00:45:58;;;;;;;;;3.00;3.00;;;;;20.05;49.22;100390.30;109995;1267;19227;-39
2023/03/05 00:48:26;;;;;;;;;3.00;3.00;;;;;20.05;49.28;100386.83;110004;1267;19430;-39
2023/03/05 00:50:54;;;;;;;;;3.00;3.00;;;;;20.05;49.37;100383.18;109905;1253;22245;-39
2023/03/05 00:53:21;;;;;;;;;4.00;3.00;;;;;20.05;49.29;100380.23;109894;1267;19981;-39
2023/03/05 00:55:49;;;;;;;;;3.00;3.00;;;;;20.06;49.28;100382.33;110040;1263;19814;-39
2023/03/05 00:58:16;;;;;;;;;3.00;3.00;;;;;20.05;49.15;100376.84;110000;1253;19711;-39
2023/03/05 01:00:44;;;;;;;;;4.00;3.00;;;;;20.05;49.07;100372.30;110016;1253;18884;-39
2023/03/05 01:03:11;;;;;;;;;4.00;3.00;;;;;20.05;49.28;100373.63;110017;1267;19376;-39
2023/03/05 01:05:38;;;;;;;;;3.50;3.50;;;;;20.06;48.97;100367.14;109985;1253;19681;-39
2023/03/05 01:08:06;;;;;;;;;3.00;3.00;;;;;20.05;49.10;100369.39;110003;1267;18654;-39
2023/03/05 01:10:33;;;;;;;;;3.00;3.00;;;;;20.05;49.13;100364.31;109995;1260;19358;-39
2023/03/05 01:13:01;;;;;;;;;3.00;3.00;;;;;20.05;49.08;100356.40;110025;1267;18434;-39
2023/03/05 01:15:28;;;;;;;;;3.00;3.00;;;;;20.05;49.09;100355.06;110000;1253;20111;-39
2023/03/05 01:17:55;;;;;;;;;3.00;3.00;;;;;20.05;48.94;100355.98;110013;1267;19373;-39
2023/03/05 01:20:23;;;;;;;;;3.00;3.00;;;;;20.05;48.94;100349.49;110006;1267;18406;-39
2023/03/05 01:22:50;;;;;;;;;3.00;3.00;;;;;20.04;49.10;100345.92;110018;1267;18677;-39
2023/03/05 01:25:18;;;;;;;;;3.00;3.00;;;;;20.06;49.19;100343.23;110007;1267;19228;-39
2023/03/05 01:27:45;;;;;;;;;3.00;3.00;;;;;20.04;48.80;100340.35;110009;1267;18245;-39
2023/03/05 01:30:12;;;;;;;;;3.33;3.33;;;;;20.04;49.05;100339.21;110021;1267;20011;-39
2023/03/05 01:32:40;;;;;;;;;3.00;3.00;;;;;20.04;48.90;100337.25;110021;1253;20890;-39
2023/03/05 01:35:07;;;;;;;;;3.00;3.00;;;;;20.05;49.11;100334.45;110040;1253;18314;-39
2023/03/05 01:37:35;;;;;;;;;4.00;3.00;;;;;20.04;49.03;100331.23;109994;1251;21035;-39
2023/03/05 01:40:02;;;;;;;;;1.00;1.00;;;;;20.03;48.87;100326.80;110008;1251;20750;-39
2023/03/05 01:42:30;;;;;;;;;3.00;3.00;;;;;20.03;49.02;100324.63;109995;1267;18399;-38
2023/03/05 01:44:57;;;;;;;;;1.00;1.00;;;;;20.04;48.94;100324.39;110026;1260;22793;-38
2023/03/05 01:47:24;;;;;;;;;3.00;1.00;;;;;20.04;48.83;100323.11;110023;1267;19437;-38
2023/03/05 01:49:53;;;;;;;;;3.00;1.00;;;;;20.03;48.99;100315.05;110001;1267;19627;-38
2023/03/05 01:52:20;;;;;;;;;3.00;3.00;;;;;20.04;48.89;100316.04;110025;1267;19879;-38
2023/03/05 01:54:48;;;;;;;;;3.00;3.00;;;;;20.03;48.91;100314.84;110015;1253;21268;-38
2023/03/05 01:57:15;;;;;;;;;2.00;2.00;;;;;20.03;48.93;100316.68;110028;1253;19688;-38
2023/03/05 01:59:42;;;;;;;;;4.00;4.00;;;;;20.03;48.82;100313.01;110000;1267;20153;-38
2023/03/05 02:02:10;;;;;;;;;3.00;3.00;;;;;20.04;48.94;100313.55;110020;1253;20869;-38
2023/03/05 02:04:37;;;;;;;;;1.00;1.00;;;;;20.03;48.99;100315.23;110008;1267;20147;-38
2023/03/05 02:07:05;;;;;;;;;6.00;3.00;;;;;20.04;48.82;100310.45;110003;1267;18660;-38
2023/03/05 02:09:32;;;;;;;;;3.00;3.00;;;;;20.02;48.81;100304.61;110013;1251;20802;-39
2023/03/05 02:12:00;;;;;;;;;3.00;3.00;;;;;20.03;48.86;100305.84;110028;1253;19659;-38
2023/03/05 02:14:27;;;;;;;;;3.00;3.00;;;;;20.03;48.77;100302.48;110000;1267;22086;-39
2023/03/05 02:16:54;;;;;;;;;3.00;3.00;;;;;20.03;48.72;100301.27;109997;1264;20767;-39
2023/03/05 02:19:22;;;;;;;;;3.00;3.00;;;;;20.02;48.83;100295.20;110025;1253;20823;-39
2023/03/05 02:21:50;;;;;;;;;3.00;3.00;;;;;20.01;48.80;100293.09;110016;1260;22304;-39
2023/03/05 02:24:17;;;;;;;;;3.00;1.00;;;;;20.01;48.73;100291.50;110025;1251;20773;-39
2023/03/05 02:26:44;;;;;;;;;1.00;1.00;;;;;20.02;48.70;100290.52;109997;1267;22624;-43
2023/03/05 02:29:12;;;;;;;;;1.00;1.00;;;;;20.01;48.78;100285.69;110023;1267;18657;-39
2023/03/05 02:31:39;;;;;;;;;3.00;3.00;;;;;20.01;48.69;100283.48;109997;1251;20818;-39
2023/03/05 02:34:07;;;;;;;;;1.00;1.00;;;;;20.01;48.52;100278.07;110017;1267;18389;-39
2023/03/05 02:36:34;;;;;;;;;3.00;3.00;;;;;20.01;48.55;100275.21;110057;1254;18658;-39
2023/03/05 02:39:02;;;;;;;;;3.00;2.00;;;;;20.01;48.68;100274.80;110022;1267;19320;-39
2023/03/05 02:41:29;;;;;;;;;1.00;1.00;;;;;20.00;48.85;100269.31;109997;1253;19712;-39
2023/03/05 02:43:56;;;;;;;;;3.00;3.00;;;;;20.01;48.73;100272.67;110006;1267;19109;-39
2023/03/05 02:46:24;;;;;;;;;2.00;2.00;;;;;20.01;48.75;100268.98;109999;1267;20832;-39
2023/03/05 02:48:51;;;;;;;;;1.00;1.00;;;;;20.02;48.55;100267.66;110022;1267;18426;-39
2023/03/05 02:51:19;;;;;;;;;3.00;3.00;;;;;20.01;48.71;100265.35;110019;1267;22831;-38
2023/03/05 02:53:46;;;;;;;;;1.00;1.00;;;;;20.01;48.77;100258.48;110035;1254;19346;-38
2023/03/05 02:56:13;;;;;;;;;3.50;3.00;;;;;20.01;48.85;100261.92;110020;1251;18328;-39
2023/03/05 02:58:41;;;;;;;;;1.00;1.00;;;;;20.01;48.61;100257.98;109909;1267;19824;-38
2023/03/05 03:01:09;;;;;;;;;3.00;2.00;;;;;20.00;48.49;100251.20;109969;1267;19397;-39
2023/03/05 03:03:36;;;;;;;;;1.00;1.00;;;;;20.01;48.63;100252.71;109963;1251;19565;-38
2023/03/05 03:06:04;;;;;;;;;1.00;1.00;;;;;20.00;48.71;100244.59;109941;1267;22334;-38
2023/03/05 03:08:31;;;;;;;;;3.00;3.00;;;;;20.00;48.65;100242.95;109991;1267;20736;-39
2023/03/05 03:10:59;;;;;;;;;1.00;1.00;;;;;20.00;48.56;100240.98;110010;1253;19975;-38
2023/03/05 03:13:26;;;;;;;;;3.00;3.00;;;;;20.00;48.62;100240.64;110007;1267;20108;-39
2023/03/05 03:15:54;;;;;;;;;3.00;3.00;;;;;20.00;48.65;100233.79;110001;1267;21064;-39
2023/03/05 03:18:21;;;;;;;;;2.00;2.00;;;;;20.00;48.54;100231.10;109996;1253;19693;-38
2023/03/05 03:20:48;;;;;;;;;1.00;1.00;;;;;20.00;48.57;100232.52;109987;1253;20052;-38
2023/03/05 03:23:16;;;;;;;;;3.00;3.00;;;;;20.00;48.44;100233.23;109971;1267;21886;-38
2023/03/05 03:25:43;;;;;;;;;1.00;1.00;;;;;20.01;48.56;100234.59;109960;1253;19706;-38
2023/03/05 03:28:11;;;;;;;;;4.00;3.00;;;;;20.00;48.38;100231.23;109960;1267;22898;-39
2023/03/05 03:30:38;;;;;;;;;3.00;1.00;;;;;20.00;48.43;100227.80;109977;1253;20848;-38
2023/03/05 03:33:06;;;;;;;;;1.00;1.00;;;;;20.00;48.71;100225.20;109880;1260;22669;-38
2023/03/05 03:35:33;;;;;;;;;1.00;1.00;;;;;19.99;48.49;100219.50;109902;1267;18646;-39
2023/03/05 03:38:01;;;;;;;;;1.00;1.00;;;;;19.99;48.46;100208.49;110038;1267;19585;-39
2023/03/05 03:40:28;;;;;;;;;1.00;1.00;;;;;19.99;48.61;100197.58;110032;1253;19756;-39
2023/03/05 03:42:56;;;;;;;;;1.00;1.00;;;;;19.98;48.39;100192.27;110043;1251;20108;-39
2023/03/05 03:45:23;;;;;;;;;2.00;2.00;;;;;19.98;48.37;100181.95;110050;1260;19377;-38
2023/03/05 03:47:51;;;;;;;;;3.00;3.00;;;;;19.98;48.49;100176.37;110029;1253;19704;-39
2023/03/05 03:50:20;;;;;;;;;3.50;3.00;;;;;19.98;48.59;100176.14;110045;1267;21760;-39
2023/03/05 03:52:47;;;;;;;;;3.00;1.00;;;;;19.98;48.38;100179.74;110023;1253;20611;-39
2023/03/05 03:55:15;;;;;;;;;3.00;3.00;;;;;19.98;48.42;100177.28;110029;1267;19414;-38
2023/03/05 03:57:42;;;;;;;;;1.00;1.00;;;;;19.98;48.41;100174.87;110016;1253;20031;-39
2023/03/05 04:00:10;;;;;;;;;2.33;1.00;;;;;19.98;48.50;100180.27;110036;1252;20939;-39
2023/03/05 04:02:38;;;;;;;;;3.00;3.00;;;;;19.98;48.66;100184.66;110059;1267;18374;-40
2023/03/05 04:05:05;;;;;;;;;1.00;1.00;;;;;19.99;48.32;100190.77;110008;1253;20202;-39
2023/03/05 04:07:32;;;;;;;;;1.00;1.00;;;;;19.98;48.44;100187.63;110025;1253;20757;-39
2023/03/05 04:10:00;;;;;;;;;3.00;3.00;;;;;19.99;48.25;100182.92;109998;1267;19677;-39
2023/03/05 04:12:27;;;;;;;;;1.00;1.00;;;;;19.98;48.26;100186.64;110003;1253;20079;-38
2023/03/05 04:14:55;;;;;;;;;1.00;1.00;;;;;19.98;48.32;100181.03;110025;1267;19389;-42
2023/03/05 04:17:22;;;;;;;;;3.00;1.00;;;;;19.98;48.34;100173.23;109986;1267;19612;-38
2023/03/05 04:19:49;;;;;;;;;1.00;1.00;;;;;19.98;48.32;100173.95;110011;1251;20045;-39
2023/03/05 04:22:17;;;;;;;;;1.00;1.00;;;;;19.98;48.31;100167.04;109984;1267;22017;-40
2023/03/05 04:24:44;;;;;;;;;3.00;3.00;;;;;19.98;48.56;100160.55;110032;1251;18498;-39
2023/03/05 04:27:12;;;;;;;;;2.00;2.00;;;;;19.98;48.41;100149.67;110038;1267;18762;-38
2023/03/05 04:29:39;;;;;;;;;1.00;1.00;;;;;19.97;48.49;100143.39;109975;1260;22691;-39
2023/03/05 04:32:07;;;;;;;;;1.00;1.00;;;;;19.98;48.27;100141.91;110021;1267;18445;-39
2023/03/05 04:34:34;;;;;;;;;3.00;3.00;;;;;19.98;48.34;100139.58;110002;1267;18635;-39
2023/03/05 04:37:02;;;;;;;;;1.00;1.00;;;;;19.97;48.33;100136.92;109997;1267;20872;-39
2023/03/05 04:39:29;;;;;;;;;3.00;3.00;;;;;19.97;48.54;100133.80;110011;1267;18400;-39
2023/03/05 04:41:57;;;;;;;;;1.00;1.00;;;;;19.97;48.31;100128.35;110023;1260;19995;-39
2023/03/05 04:44:24;;;;;;;;;1.00;1.00;;;;;19.97;48.45;100129.78;110014;1251;19435;-39
2023/03/05 04:46:52;;;;;;;;;3.00;1.00;;;;;19.97;48.19;100127.05;110017;1253;19646;-38
2023/03/05 04:49:20;;;;;;;;;2.00;2.00;;;;;19.98;48.27;100123.39;109990;1267;19979;-38
2023/03/05 04:51:47;;;;;;;;;3.00;1.00;;;;;19.98;48.19;100125.59;109996;1267;19382;-38
2023/03/05 04:54:15;;;;;;;;;1.00;1.00;;;;;19.98;48.40;100122.70;110062;1267;18418;-38
2023/03/05 04:56:42;;;;;;;;;3.00;1.00;;;;;19.97;48.25;100128.52;110031;1267;19975;-38
2023/03/05 04:59:09;;;;;;;;;1.00;1.00;;;;;19.97;48.26;100124.92;110000;1267;20756;-38
2023/03/05 05:01:37;;;;;;;;;1.00;1.00;;;;;19.98;48.17;100132.48;110019;1253;19702;-38
2023/03/05 05:04:04;;;;;;;;;1.00;1.00;;;;;19.97;48.25;100131.41;109992;1267;19990;-38
2023/03/05 05:06:32;;;;;;;;;1.00;1.00;;;;;19.98;48.24;100133.02;110021;1267;20558;-40
2023/03/05 05:08:59;;;;;;;;;1.00;1.00;;;;;19.98;48.34;100128.70;110034;1267;22857;-39
2023/03/05 05:11:27;;;;;;;;;1.00;1.00;;;;;19.97;48.32;100126.04;110040;1267;18625;-39
2023/03/05 05:13:54;;;;;;;;;3.00;3.00;;;;;19.97;48.27;100126.39;110009;1253;20898;-39
2023/03/05 05:16:22;;;;;;;;;1.00;1.00;;;;;19.97;48.31;100116.63;109999;1253;18421;-40
2023/03/05 05:18:49;;;;;;;;;1.00;1.00;;;;;19.97;48.12;100116.77;110013;1267;18912;-39
2023/03/05 05:21:17;;;;;;;;;1.00;1.00;;;;;19.97;48.20;100115.03;109986;1251;22710;-39
2023/03/05 05:23:45;;;;;;;;;1.00;1.00;;;;;19.96;48.04;100109.67;109985;1253;22810;-39
2023/03/05 05:26:13;;;;;;;;;1.00;1.00;;;;;19.96;48.32;100110.96;109879;1267;18628;-39
2023/03/05 05:28:42;;;;;;;;;3.00;3.00;;;;;19.96;48.29;100109.09;110051;1267;19360;-39
2023/03/05 05:31:09;;;;;;;;;1.00;1.00;;;;;19.96;48.28;100101.55;110099;1254;19559;-37
2023/03/05 05:33:37;;;;;;;;;1.00;1.00;;;;;19.96;48.10;100108.08;110070;1267;19881;-39
2023/03/05 05:36:04;;;;;;;;;1.00;1.00;;;;;19.97;48.01;100119.39;110025;1253;22698;-39
2023/03/05 05:38:31;;;;;;;;;1.00;1.00;;;;;19.96;48.05;100118.84;110018;1267;18840;-38
2023/03/05 05:40:59;;;;;;;;;3.00;3.00;;;;;19.97;48.21;100115.14;110049;1267;18896;-39
2023/03/05 05:43:26;;;;;;;;;1.00;1.00;;;;;19.96;48.18;100115.58;110004;1267;19409;-39
2023/03/05 05:45:54;;;;;;;;;1.00;1.00;;;;;19.97;48.05;100110.48;110019;1267;21907;-39
2023/03/05 05:48:21;;;;;;;;;2.33;1.67;;;;;19.96;48.01;100105.86;110026;1267;19969;-39
2023/03/05 05:50:49;;;;;;;;;1.00;1.00;;;;;19.96;48.03;100109.77;109995;1260;20990;-39
2023/03/05 05:53:16;;;;;;;;;3.00;1.00;;;;;19.96;48.22;100105.45;110024;1267;18411;-39
2023/03/05 05:55:43;;;;;;;;;1.00;1.00;;;;;19.96;48.00;100107.80;109998;1260;21499;-39
2023/03/05 05:58:11;;;;;;;;;2.00;2.00;;;;;19.95;48.07;100105.57;110007;1253;20817;-39
2023/03/05 06:00:38;;;;;;;;;1.00;1.00;;;;;19.96;47.83;100105.79;110035;1267;18775;-39
2023/03/05 06:03:06;;;;;;;;;3.00;3.00;;;;;19.97;48.10;100111.50;109999;1267;19950;-39
2023/03/05 06:05:34;;;;;;;;;1.00;1.00;;;;;19.96;48.04;100105.41;110047;1267;19345;-39
2023/03/05 06:08:01;;;;;;;;;2.00;1.00;;;;;19.96;47.89;100098.80;110001;1253;20905;-39
2023/03/05 06:10:28;;;;;;;;;1.67;1.67;;;;;19.95;47.84;100098.29;109999;1267;19977;-39
2023/03/05 06:12:56;;;;;;;;;1.00;1.00;;;;;19.97;48.07;100103.78;110032;1267;20716;-39
2023/03/05 06:15:23;;;;;;;;;1.67;1.67;;;;;19.96;47.92;100107.16;109933;1253;19616;-39
2023/03/05 06:17:51;;;;;;;;;1.00;1.00;;;;;19.96;47.95;100107.66;110024;1267;19984;-39
2023/03/05 06:20:19;;;;;;;;;1.00;1.00;;;;;19.95;48.04;100106.48;110036;1253;22047;-39
2023/03/05 06:22:46;;;;;;;;;1.00;1.00;;;;;19.95;47.85;100103.97;110030;1253;20781;-39
2023/03/05 06:25:14;;;;;;;;;3.00;3.00;;;;;19.96;48.04;100106.91;110056;1267;18610;-39
2023/03/05 06:27:41;;;;;;;;;1.00;1.00;;;;;19.98;47.97;100106.02;110029;1267;19499;-40
2023/03/05 06:30:08;;;;;;;;;2.00;2.00;;;;;19.99;48.00;100102.78;110017;1267;19630;-39
2023/03/05 06:32:36;;;;;;;;;3.00;3.00;;;;;20.00;48.31;100106.98;110019;1253;20150;-39
2023/03/05 06:35:03;;;;;;;;;3.00;3.00;;;;;20.00;48.28;100104.42;110017;1267;22758;-39
2023/03/05 06:37:31;;;;;;;;;3.00;3.00;;;;;20.03;48.17;100108.89;110013;1253;19668;-37
2023/03/05 06:39:58;;;;;;;;;1.00;1.00;;;;;20.05;48.31;100104.81;110023;1251;21105;-37
2023/03/05 06:42:25;;;;;;;;;1.67;1.67;;;;;20.07;48.38;100106.19;110003;1267;20715;-38
2023/03/05 06:44:53;;;;;;;;;3.00;3.00;;;;;20.08;48.41;100104.48;110002;1267;18296;-37
2023/03/05 06:47:20;;;;;;;;;1.00;1.00;;;;;20.08;48.20;100104.45;110016;1267;19877;-39
2023/03/05 06:49:48;;;;;;;;;3.00;3.00;;;;;20.09;48.22;100103.23;110017;1253;20792;-38
2023/03/05 06:52:15;;;;;;;;;1.00;1.00;;;;;20.10;48.14;100104.39;110008;1267;19140;-38
2023/03/05 06:54:43;;;;;;;;;3.00;3.00;;;;;20.17;48.23;100106.27;110019;1263;18942;-39
2023/03/05 06:57:10;;;;;;;;;1.00;1.00;;;;;20.22;48.56;100108.66;109997;1267;22313;-39
2023/03/05 06:59:38;;;;;;;;;3.00;2.00;;;;;20.25;48.91;100108.41;110003;1253;19615;-38
2023/03/05 07:02:05;;;;;;;;;1.00;1.00;;;;;20.27;49.18;100104.22;110002;1253;20193;-38
2023/03/05 07:04:33;;;;;;;;;2.00;2.00;;;;;20.32;49.41;100106.33;110001;1260;22168;-37
2023/03/05 07:07:00;;;;;;;;;3.00;1.67;;;;;20.33;49.70;100107.70;110022;1267;18963;-39
2023/03/05 07:09:29;;;;;;;;;2.33;1.00;;;;;20.30;49.93;100104.96;110004;1251;19883;-38
2023/03/05 07:11:57;;;;;;;;;3.00;3.00;;;;;20.30;49.71;100106.43;110041;1253;22660;-37
2023/03/05 07:14:24;;;;;;;;;3.00;3.00;;;;;20.36;49.55;100106.55;109998;1251;19640;-38
2023/03/05 07:16:52;;;;;;;;;1.00;1.00;;;;;20.40;49.67;100105.55;110002;1260;21282;-38
2023/03/05 07:19:19;;;;;;;;;3.00;3.00;;;;;20.43;50.37;100103.55;109986;1253;20729;-38
2023/03/05 07:21:46;;;;;;;;;1.00;1.00;;;;;20.44;50.98;100104.86;110047;1251;20375;-37
2023/03/05 07:24:14;;;;;;;;;4.00;3.00;;;;;20.47;51.49;100105.30;110010;1267;20051;-38
2023/03/05 07:26:41;;;;;;;;;3.00;3.00;;;;;20.45;52.01;100105.27;110052;1267;20740;-38
2023/03/05 07:29:09;;;;;;;;;3.00;3.00;;;;;20.44;52.50;100112.06;110036;1267;20673;-38
2023/03/05 07:31:36;;;;;;;;;3.00;3.00;;;;;20.43;53.02;100105.14;110035;1267;20015;-38
2023/03/05 07:34:05;;;;;;;;;2.00;2.00;;;;;20.43;52.88;100108.02;109983;1267;21748;-38
2023/03/05 07:36:33;;;;;;;;;3.00;3.00;;;;;20.45;52.43;100110.60;109972;1253;19774;-39
2023/03/05 07:39:01;;;;;;;;;4.00;4.00;;;;;20.46;52.62;100106.43;110038;1251;22319;-40
2023/03/05 07:41:28;;;;;;;;;3.00;3.00;;;;;20.48;53.22;100106.02;109896;1251;21317;-39
2023/03/05 07:43:56;;;;;;;;;1.00;1.00;;;;;20.47;53.60;100106.60;109976;1267;18525;-42
2023/03/05 07:46:23;;;;;;;;;2.00;2.00;;;;;20.45;53.55;100106.04;110079;1267;18599;-39
2023/03/05 07:48:51;;;;;;;;;3.00;3.00;;;;;20.42;53.53;100104.33;110046;1267;19833;-38
2023/03/05 07:51:18;;;;;;;;;3.00;3.00;;;;;20.44;53.63;100103.09;110009;1267;22976;-39
2023/03/05 07:53:46;;;;;;;;;2.00;2.00;;;;;20.44;53.79;100106.65;109926;1253;20133;-38
2023/03/05 07:56:13;;;;;;;;;2.00;2.00;;;;;20.43;53.84;100103.36;110007;1267;19746;-38
2023/03/05 07:58:41;;;;;;;;;1.00;1.00;;;;;20.42;53.62;100105.09;110030;1267;18585;-39
2023/03/05 08:01:08;;;;;;;;;2.33;2.33;;;;;20.40;53.64;100108.58;110035;1253;21150;-39
2023/03/05 08:03:36;;;;;;;;;3.00;3.00;;;;;20.39;53.32;100104.77;109993;1267;19363;-39
2023/03/05 08:06:03;;;;;;;;;4.00;3.00;;;;;20.39;53.75;100103.15;110035;1251;22965;-39
2023/03/05 08:08:31;;;;;;;;;1.00;1.00;;;;;20.39;53.68;100102.74;110050;1267;20111;-38
2023/03/05 08:10:59;;;;;;;;;3.00;3.00;;;;;20.41;53.61;100102.86;110008;1267;19345;-38
2023/03/05 08:13:26;;;;;;;;;3.00;3.00;;;;;20.42;53.52;100098.24;109991;1267;18411;-39
2023/03/05 08:15:54;;;;;;;;;1.00;1.00;;;;;20.43;53.66;100095.20;110033;1267;20677;-38
2023/03/05 08:18:21;;;;;;;;;1.00;1.00;;;;;20.44;53.69;100095.05;110054;1267;19352;-39
2023/03/05 08:20:49;;;;;;;;;3.00;3.00;;;;;20.44;53.82;100094.30;110057;1251;19598;-39
2023/03/05 08:23:16;;;;;;;;;1.00;1.00;;;;;20.45;53.39;100095.98;110027;1251;20555;-39
2023/03/05 08:25:44;;;;;;;;;4.00;3.00;;;;;20.43;53.28;100095.66;109854;1267;198862;-39
2023/03/05 08:28:11;;;;;;;;;2.00;2.00;;;;;20.41;53.19;100095.06;109985;1267;18396;-39
2023/03/05 08:30:38;;;;;;;;;3.00;3.00;;;;;20.41;53.03;100095.85;109996;1251;18643;-38
2023/03/05 08:33:06;;;;;;;;;3.00;1.00;;;;;20.40;53.18;100093.73;110030;1267;20743;-40
2023/03/05 08:35:33;;;;;;;;;2.00;2.00;;;;;20.38;53.25;100091.99;110019;1267;18414;-40
2023/03/05 08:38:01;;;;;;;;;3.00;2.33;;;;;20.38;52.85;100089.14;109995;1267;21269;-43
2023/03/05 08:40:28;;;;;;;;;1.00;1.00;;;;;20.39;52.70;100088.75;110021;1252;22745;-37
2023/03/05 08:42:56;;;;;;;;;1.00;1.00;;;;;20.38;52.47;100083.28;109968;1254;21052;-38
2023/03/05 08:45:23;;;;;;;;;1.00;1.00;;;;;20.38;52.71;100082.03;109938;1267;19919;-39
2023/03/05 08:47:51;;;;;;;;;2.00;2.00;;;;;20.37;52.65;100078.17;109972;1267;19265;-38
2023/03/05 08:50:18;;;;;;;;;4.00;4.00;;;;;20.35;52.38;100075.85;109980;1267;18303;-38
2023/03/05 08:52:45;;;;;;;;;3.00;3.00;;;;;20.34;52.48;100071.81;109994;1260;18675;-39
2023/03/05 08:55:13;;;;;;;;;3.00;3.00;;;;;20.33;52.51;100072.46;110005;1267;22465;-39
2023/03/05 08:57:40;;;;;;;;;3.00;3.00;;;;;20.33;52.35;100063.83;110027;1267;18536;-39
2023/03/05 09:00:09;;;;;;;;;3.00;3.00;;;;;20.36;52.50;100060.66;110004;1267;19003;-39
2023/03/05 09:02:36;;;;;;;;;4.00;3.00;;;;;20.38;52.15;100060.63;110032;1267;22853;-40
2023/03/05 09:05:03;;;;;;;;;4.00;3.00;;;;;20.39;51.92;100055.92;110003;1251;22791;-40
2023/03/05 09:07:31;;;;;;;;;1.00;1.00;;;;;20.38;52.00;100051.75;110002;1266;20009;-40
2023/03/05 09:09:58;;;;;;;;;3.00;3.00;;;;;20.37;51.90;100049.07;109964;1267;20935;-39
2023/03/05 09:12:26;;;;;;;;;3.00;3.00;;;;;20.35;51.26;100047.58;110028;1267;18242;-40
2023/03/05 09:14:53;;;;;;;;;3.00;3.00;;;;;20.32;51.55;100045.11;110040;1251;19917;-40
2023/03/05 09:17:20;;;;;;;;;1.00;1.00;;;;;20.30;51.67;100044.80;109875;1267;21030;-38
2023/03/05 09:19:48;;;;;;;;;3.50;3.00;;;;;20.26;51.70;100040.11;109916;1267;19619;-38
2023/03/05 09:22:15;;;;;;;;;1.00;1.00;;;;;20.25;51.68;100041.17;110032;1267;18855;-38
2023/03/05 09:24:43;;;;;;;;;2.00;2.00;;;;;20.24;51.68;100036.73;110016;1260;19552;-38
2023/03/05 09:27:10;;;;;;;;;2.33;2.33;;;;;20.24;51.30;100037.33;110000;1267;18746;-39
2023/03/05 09:29:38;;;;;;;;;1.00;1.00;;;;;20.23;51.51;100031.45;109950;1267;18643;-38
2023/03/05 09:32:05;;;;;;;;;3.00;3.00;;;;;20.23;51.40;100028.60;109995;1267;19372;-41
2023/03/05 09:34:33;;;;;;;;;1.00;1.00;;;;;20.21;51.23;100023.84;109991;1253;19685;-39
2023/03/05 09:37:00;;;;;;;;;3.50;3.00;;;;;20.21;51.13;100019.86;109877;1267;20058;-38
2023/03/05 09:39:28;;;;;;;;;1.00;1.00;;;;;20.21;50.90;100021.34;109968;1267;19649;-38
2023/03/05 09:41:55;;;;;;;;;3.00;3.00;;;;;20.20;50.96;100021.05;110017;1267;19982;-38
2023/03/05 09:44:23;;;;;;;;;1.00;1.00;;;;;20.21;50.86;100019.60;109983;1267;22774;-39
2023/03/05 09:46:50;;;;;;;;;1.00;1.00;;;;;20.20;50.85;100022.56;110010;1252;20930;-39
2023/03/05 09:49:18;;;;;;;;;1.00;1.00;;;;;20.19;51.07;100022.64;110007;1267;22152;-39
2023/03/05 09:51:46;;;;;;;;;1.00;1.00;;;;;20.20;50.72;100026.41;109988;1260;18604;-39
2023/03/05 09:54:14;;;;;;;;;3.00;3.00;;;;;20.19;50.58;100025.61;110026;1267;20704;-38
2023/03/05 09:56:41;;;;;;;;;1.00;1.00;;;;;20.19;50.50;100021.09;110009;1267;19631;-39
2023/03/05 09:59:09;;;;;;;;;1.00;1.00;;;;;20.19;50.62;100020.92;109923;1267;19908;-39
2023/03/05 10:01:37;;;;;;;;;1.00;1.00;;;;;20.19;50.56;100020.88;109984;1253;21087;-39
2023/03/05 10:04:05;;;;;;;;;1.00;1.00;;;;;20.19;50.40;100023.10;110021;1267;22732;-38
2023/03/05 10:06:32;;;;;;;;;2.00;2.00;;;;;20.19;50.59;100026.20;110031;1267;19711;-38
2023/03/05 10:08:59;;;;;;;;;1.00;1.00;;;;;20.18;50.37;100023.31;110013;1260;21092;-39
2023/03/05 10:11:27;;;;;;;;;1.00;1.00;;;;;20.18;50.48;100024.85;110015;1252;20499;-39
2023/03/05 10:13:55;;;;;;;;;1.00;1.00;;;;;20.17;50.32;100023.48;110035;1267;18636;-39
2023/03/05 10:16:22;;;;;;;;;1.00;1.00;;;;;20.17;50.36;100022.21;109960;1267;19337;-39
2023/03/05 10:18:49;;;;;;;;;1.00;1.00;;;;;20.17;50.33;100023.30;109875;1267;18379;-44
2023/03/05 10:21:17;;;;;;;;;3.00;1.00;;;;;20.17;50.14;100023.30;109910;1260;21972;-39
2023/03/05 10:23:44;;;;;;;;;3.00;3.00;;;;;20.17;50.23;100021.36;109957;1267;20714;-39
2023/03/05 10:26:12;;;;;;;;;1.00;1.00;;;;;20.18;50.35;100017.23;109909;1267;18841;-39
2023/03/05 10:28:39;;;;;;;;;1.00;1.00;;;;;20.17;49.98;100012.45;109917;1251;19883;-39
2023/03/05 10:31:07;;;;;;;;;2.00;2.00;;;;;20.16;49.80;100008.36;109916;1267;19726;-38
2023/03/05 10:33:34;;;;;;;;;2.00;2.00;;;;;20.21;49.68;100003.92;110027;1260;18670;-39
2023/03/05 10:36:01;;;;;;;;;1.00;1.00;;;;;20.25;49.83;100004.55;110015;1267;20355;-39
2023/03/05 10:38:30;;;;;;;;;1.00;1.00;;;;;20.26;49.86;100000.92;109975;1267;19978;-38
2023/03/05 10:40:57;;;;;;;;;1.00;1.00;;;;;20.27;50.31;99999.52;110035;1251;20123;-39
2023/03/05 10:43:25;;;;;;;;;1.00;1.00;;;;;20.28;50.35;100000.57;109997;1267;18639;-39
2023/03/05 10:45:52;;;;;;;;;1.00;1.00;;;;;20.31;50.45;99998.17;110007;1267;19365;-40
2023/03/05 10:48:21;;;;;;;;;1.00;1.00;;;;;20.31;50.89;99992.55;110006;1267;18368;-39
2023/03/05 10:50:49;;;;;;;;;3.00;3.00;;;;;20.33;50.85;99994.70;110017;1253;22058;-39
2023/03/05 10:53:16;;;;;;;;;3.00;3.00;;;;;20.33;50.67;99995.38;109999;1253;20864;-38
2023/03/05 10:55:43;;;;;;;;;2.00;2.00;;;;;20.34;51.00;99995.02;110003;1253;20077;-39
2023/03/05 10:58:11;;;;;;;;;1.00;1.00;;;;;20.35;51.42;99996.63;109999;1253;21599;-39
2023/03/05 11:00:38;;;;;;;;;2.00;1.00;;;;;20.36;51.54;99996.46;110000;1253;21077;-39
2023/03/05 11:03:06;;;;;;;;;3.00;3.00;;;;;20.38;51.59;99995.14;110005;1261;19624;-40
2023/03/05 11:05:34;;;;;;;;;3.00;3.00;;;;;20.37;51.89;99989.91;110033;1267;20173;-40
2023/03/05 11:08:02;;;;;;;;;3.00;2.00;;;;;20.39;52.08;99989.25;110003;1267;22352;-40
2023/03/05 11:10:29;;;;;;;;;5.00;3.50;;;;;20.40;52.16;99986.33;110007;1253;22246;-40
2023/03/05 11:12:56;;;;;;;;;1.00;1.00;;;;;20.38;52.29;99986.86;110017;1267;18823;-40
2023/03/05 11:15:25;;;;;;;;;1.00;1.00;;;;;20.40;52.31;99990.86;110056;1267;21722;-39
2023/03/05 11:17:52;;;;;;;;;1.00;1.00;;;;;20.40;52.40;99989.27;110015;1267;22865;-39